CheckWX is a tool to help pilots better visualize weather data.  It is not intended as a substitute for an official pre-flight weather briefing.

04:42:09 UTC

KLND TAF
Hunt Field Airport
Lander, Wyoming, USA
KLND 222336Z 2300/2324 VRB04KT P6SM SCT100 BKN150 FM230200 25006KT P6SM SCT200 FM231200 VRB05KT P6SM SCT080 BKN150

Mar-23@
00:00 UTC

Mar-23 @ 00:00 UTC

Mar-23@
02:00 UTC

Mar-23 @ 02:00 UTC

KLND 222336Z 2300/2324 VRB04KT P6SM SCT100 BKN150

Expired

Wind
  • Variable at 4 KTS
Cloud Levels
  • Scattered at 10,000' AGL
  • Broken at 15,000' AGL

Mar-23@
02:00 UTC

Mar-23 @ 02:00 UTC

Mar-23@
12:00 UTC

Mar-23 @ 12:00 UTC

FM230200 25006KT P6SM SCT200

From

From Standard forecast or significant change

Wind
  • 250° at 6 KTS
Cloud Levels
  • Scattered at 20,000' AGL

Mar-23@
12:00 UTC

Mar-23 @ 12:00 UTC

Mar-24@
00:00 UTC

Mar-24 @ 00:00 UTC

FM231200 VRB05KT P6SM SCT080 BKN150

From

From Standard forecast or significant change

Wind
  • Variable at 5 KTS
Cloud Levels
  • Scattered at 8,000' AGL
  • Broken at 15,000' AGL